createdAt,value
2022-07-31T00:00:26.716Z,90.60
2022-07-31T00:02:55.366Z,90.80
2022-07-31T00:05:23.960Z,88.30
2022-07-31T00:07:52.590Z,87.30
2022-07-31T00:10:22.196Z,87.50
2022-07-31T00:12:50.478Z,90.20
2022-07-31T00:15:19.261Z,93.60
2022-07-31T00:17:47.716Z,98.00
2022-07-31T00:20:17.830Z,94.90
2022-07-31T00:22:47.708Z,92.60
2022-07-31T00:25:17.102Z,92.90
2022-07-31T00:27:46.812Z,93.70
2022-07-31T00:30:16.935Z,93.30
2022-07-31T00:32:45.955Z,88.70
2022-07-31T00:35:15.027Z,76.70
2022-07-31T00:37:44.308Z,69.70
2022-07-31T00:40:15.407Z,67.40
2022-07-31T00:42:44.329Z,67.80
2022-07-31T00:45:14.062Z,72.00
2022-07-31T00:47:42.703Z,73.70
2022-07-31T00:50:11.652Z,83.50
2022-07-31T00:52:40.198Z,84.70
2022-07-31T00:55:09.483Z,90.80
2022-07-31T00:57:38.100Z,91.90
2022-07-31T01:00:07.850Z,91.10
2022-07-31T01:02:38.397Z,90.10
2022-07-31T01:05:14.966Z,91.80
2022-07-31T01:07:43.004Z,92.10
2022-07-31T01:10:17.334Z,92.60
2022-07-31T01:12:54.237Z,91.00
2022-07-31T01:15:24.769Z,85.50
2022-07-31T01:17:55.844Z,79.50
2022-07-31T01:20:24.764Z,83.60
2022-07-31T01:23:17.559Z,66.70
2022-07-31T01:26:19.509Z,62.50
2022-07-31T01:29:11.006Z,61.50
2022-07-31T01:31:43.655Z,61.70
2022-07-31T01:34:19.963Z,63.40
2022-07-31T01:36:57.628Z,66.70
2022-07-31T01:39:27.365Z,70.30
2022-07-31T01:42:07.482Z,74.80
2022-07-31T01:44:43.176Z,80.20
2022-07-31T01:47:15.055Z,79.20
2022-07-31T01:49:45.057Z,87.90
2022-07-31T01:52:15.115Z,90.70
2022-07-31T01:54:46.263Z,87.40
2022-07-31T01:57:18.522Z,82.30
2022-07-31T01:59:54.974Z,79.70
2022-07-31T02:02:45.583Z,76.50
2022-07-31T02:05:14.728Z,74.60
2022-07-31T02:07:44.794Z,77.80
2022-07-31T02:10:16.464Z,86.60
2022-07-31T02:12:48.452Z,92.50
2022-07-31T02:15:20.077Z,98.10
2022-07-31T02:17:51.004Z,97.40
2022-07-31T02:20:25.954Z,93.10
2022-07-31T02:22:57.125Z,93.00
2022-07-31T02:25:25.743Z,95.60
2022-07-31T02:27:58.785Z,94.70
2022-07-31T02:30:39.472Z,94.40
2022-07-31T02:33:12.950Z,96.10
2022-07-31T02:35:45.438Z,96.70
2022-07-31T02:38:23.423Z,98.20
2022-07-31T02:40:58.783Z,98.10
2022-07-31T02:43:29.499Z,96.10
2022-07-31T02:46:02.570Z,97.60
2022-07-31T02:48:31.101Z,98.90
2022-07-31T02:51:04.052Z,98.10
2022-07-31T02:53:33.443Z,95.30
2022-07-31T02:56:04.847Z,93.60
2022-07-31T02:58:39.250Z,94.30
2022-07-31T03:01:09.136Z,94.80
2022-07-31T03:03:38.587Z,89.40
2022-07-31T03:06:07.235Z,86.00
2022-07-31T03:08:36.216Z,83.30
2022-07-31T03:11:06.381Z,83.80
2022-07-31T03:13:37.173Z,87.70
2022-07-31T03:16:11.286Z,79.50
2022-07-31T03:18:41.225Z,78.50
2022-07-31T03:21:11.722Z,81.00
2022-07-31T03:23:40.730Z,79.80
2022-07-31T03:26:15.130Z,78.50
2022-07-31T03:28:44.132Z,75.90
2022-07-31T03:31:13.696Z,83.50
2022-07-31T03:33:42.626Z,80.50
2022-07-31T03:36:10.860Z,85.00
2022-07-31T03:38:42.706Z,76.70
2022-07-31T03:41:33.891Z,77.50
2022-07-31T03:44:02.753Z,73.90
2022-07-31T03:46:33.678Z,77.30
2022-07-31T03:49:03.309Z,85.10
2022-07-31T03:51:32.462Z,81.50
2022-07-31T03:54:00.853Z,84.20
2022-07-31T03:56:50.861Z,90.70
2022-07-31T03:59:21.584Z,91.50
2022-07-31T04:01:58.111Z,93.00
2022-07-31T04:05:03.925Z,91.20
2022-07-31T04:07:35.315Z,93.30
2022-07-31T04:10:03.810Z,94.50
2022-07-31T04:12:32.060Z,96.60
2022-07-31T04:15:00.272Z,96.40
2022-07-31T04:17:30.834Z,99.00
2022-07-31T04:20:02.278Z,99.50
2022-07-31T04:22:34.791Z,99.90
2022-07-31T04:25:07.524Z,99.90
2022-07-31T04:27:55.845Z,99.90
2022-07-31T04:30:24.006Z,99.90
2022-07-31T04:32:53.528Z,99.90
2022-07-31T04:35:24.070Z,99.90
2022-07-31T04:37:52.298Z,99.90
2022-07-31T04:40:25.208Z,99.90
2022-07-31T04:42:53.328Z,99.90
2022-07-31T04:45:21.443Z,99.90
2022-07-31T04:47:49.570Z,99.90
2022-07-31T04:50:19.834Z,99.90
2022-07-31T04:52:59.001Z,99.90
2022-07-31T04:55:31.884Z,99.90
2022-07-31T04:58:00.350Z,99.90
2022-07-31T05:00:28.685Z,99.90
2022-07-31T05:02:56.851Z,99.90
2022-07-31T05:05:26.356Z,99.90
2022-07-31T05:07:54.451Z,99.90
2022-07-31T05:10:44.995Z,99.50
2022-07-31T05:13:13.828Z,99.90
2022-07-31T05:15:44.728Z,99.90
2022-07-31T05:18:12.930Z,99.90
2022-07-31T05:20:42.348Z,99.90
2022-07-31T05:23:36.284Z,99.90
2022-07-31T05:26:16.039Z,99.90
2022-07-31T05:28:46.594Z,99.90
2022-07-31T05:31:15.239Z,98.30
2022-07-31T05:33:44.053Z,99.90
2022-07-31T05:36:13.587Z,96.10
2022-07-31T05:38:42.469Z,95.40
2022-07-31T05:41:29.850Z,95.10
2022-07-31T05:44:27.206Z,94.60
2022-07-31T05:49:24.020Z,91.00
2022-07-31T05:51:55.510Z,92.40
2022-07-31T05:54:23.737Z,91.30
2022-07-31T05:57:10.566Z,91.70
2022-07-31T05:59:43.045Z,91.60
2022-07-31T06:02:11.236Z,92.40
2022-07-31T06:04:57.599Z,92.50
2022-07-31T06:07:27.291Z,93.30
2022-07-31T06:09:55.527Z,93.10
2022-07-31T06:12:23.655Z,94.40
2022-07-31T06:14:51.853Z,93.90
2022-07-31T06:17:44.036Z,93.00
2022-07-31T06:20:33.364Z,94.50
2022-07-31T06:23:20.042Z,95.90
2022-07-31T06:25:54.006Z,96.30
2022-07-31T06:28:26.066Z,95.40
2022-07-31T06:31:06.990Z,99.90
2022-07-31T06:33:37.039Z,98.90
2022-07-31T06:36:06.539Z,99.90
2022-07-31T06:38:41.368Z,99.90
2022-07-31T06:41:47.306Z,99.90
2022-07-31T06:44:32.225Z,99.90
2022-07-31T06:47:20.044Z,99.90
2022-07-31T06:49:55.040Z,99.90
2022-07-31T06:52:26.845Z,99.90
2022-07-31T06:54:57.215Z,99.90
2022-07-31T06:57:25.397Z,99.90
2022-07-31T06:59:53.489Z,99.90
2022-07-31T07:02:22.021Z,99.90
2022-07-31T07:04:56.297Z,99.90
2022-07-31T07:07:36.176Z,99.90
2022-07-31T07:10:07.289Z,99.90
2022-07-31T07:13:13.260Z,99.90
2022-07-31T07:15:42.387Z,99.90
2022-07-31T07:18:11.013Z,99.90
2022-07-31T07:20:49.503Z,99.90
2022-07-31T07:23:18.137Z,99.90
2022-07-31T07:26:17.040Z,99.90
2022-07-31T07:28:45.215Z,99.90
2022-07-31T07:31:13.380Z,99.90
2022-07-31T07:33:42.984Z,99.90
2022-07-31T07:36:23.110Z,99.90
2022-07-31T07:38:56.245Z,99.90
2022-07-31T07:41:26.895Z,99.90
2022-07-31T07:43:55.426Z,99.90
2022-07-31T07:46:27.352Z,99.90
2022-07-31T07:49:00.104Z,99.90
2022-07-31T07:51:58.929Z,99.90
2022-07-31T07:54:40.723Z,99.90
2022-07-31T07:57:28.812Z,99.90
2022-07-31T08:00:16.413Z,99.90
2022-07-31T08:03:47.234Z,99.90
2022-07-31T08:05:34.896Z,99.90
2022-07-31T08:08:03.033Z,99.90
2022-07-31T08:11:04.840Z,99.90
2022-07-31T08:13:57.269Z,99.90
2022-07-31T08:16:43.815Z,99.90
2022-07-31T08:19:11.966Z,99.90
2022-07-31T08:21:40.132Z,99.90
2022-07-31T08:24:08.624Z,99.90
2022-07-31T08:26:50.704Z,99.90
2022-07-31T08:29:23.812Z,99.90
2022-07-31T08:31:59.435Z,99.90
2022-07-31T08:34:54.081Z,99.90
2022-07-31T08:37:50.904Z,97.00
2022-07-31T08:40:11.535Z,97.20
2022-07-31T08:42:39.794Z,95.00
2022-07-31T08:45:10.469Z,93.90
2022-07-31T08:47:48.897Z,90.50
2022-07-31T08:50:24.178Z,92.80
2022-07-31T08:52:57.853Z,81.80
2022-07-31T08:55:58.310Z,72.70
2022-07-31T08:58:30.458Z,73.90
2022-07-31T09:01:02.429Z,87.90
2022-07-31T09:03:30.984Z,87.10
2022-07-31T09:06:01.031Z,73.90
2022-07-31T09:08:32.315Z,80.20
2022-07-31T09:11:06.094Z,84.70
2022-07-31T09:13:39.112Z,73.00
2022-07-31T09:16:30.763Z,91.20
2022-07-31T09:19:00.802Z,91.90
2022-07-31T09:21:50.087Z,90.90
2022-07-31T09:24:28.370Z,93.50
2022-07-31T09:27:05.866Z,89.50
2022-07-31T09:29:35.800Z,89.80
2022-07-31T09:32:16.784Z,93.40
2022-07-31T09:35:13.087Z,87.80
2022-07-31T09:37:42.455Z,89.80
2022-07-31T09:40:55.286Z,90.90
2022-07-31T09:43:31.620Z,86.90
2022-07-31T09:46:01.719Z,77.80
2022-07-31T09:48:32.001Z,66.30
2022-07-31T09:51:01.467Z,99.90
2022-07-31T09:53:43.638Z,99.90
2022-07-31T09:56:32.696Z,99.90
2022-07-31T09:59:01.822Z,99.90
2022-07-31T10:01:32.007Z,99.90
2022-07-31T10:04:03.791Z,99.90
2022-07-31T10:06:34.195Z,99.90
2022-07-31T10:09:05.858Z,99.90
2022-07-31T10:12:01.897Z,99.90
2022-07-31T10:14:33.147Z,99.90
2022-07-31T10:17:04.523Z,99.90
2022-07-31T10:19:48.994Z,99.90
2022-07-31T10:22:51.423Z,99.90
2022-07-31T10:25:26.655Z,99.90
2022-07-31T10:27:57.115Z,99.90
2022-07-31T10:30:28.343Z,99.90
2022-07-31T10:32:59.935Z,99.90
2022-07-31T10:35:30.196Z,99.90
2022-07-31T10:38:12.584Z,99.90
2022-07-31T10:41:35.371Z,99.90
2022-07-31T10:44:09.043Z,99.90
2022-07-31T10:46:45.607Z,99.90
2022-07-31T10:49:42.037Z,99.90
2022-07-31T10:52:36.195Z,99.90
2022-07-31T10:55:34.956Z,99.90
2022-07-31T10:58:20.108Z,99.90
2022-07-31T11:01:06.685Z,99.90
2022-07-31T11:03:49.665Z,99.90
2022-07-31T11:06:42.231Z,99.90
2022-07-31T11:09:32.574Z,99.90
2022-07-31T11:12:33.496Z,99.90
2022-07-31T11:15:22.444Z,99.90
2022-07-31T11:18:25.669Z,99.90
2022-07-31T11:21:38.071Z,99.90
2022-07-31T11:24:03.110Z,99.90
2022-07-31T11:26:42.047Z,99.90
2022-07-31T11:30:01.085Z,99.90
2022-07-31T11:32:14.923Z,99.90
2022-07-31T11:34:48.508Z,99.90
2022-07-31T11:37:22.751Z,99.90
2022-07-31T11:39:52.740Z,99.90
2022-07-31T11:42:29.475Z,99.90
2022-07-31T11:45:08.431Z,99.90
2022-07-31T11:48:12.603Z,99.90
2022-07-31T11:50:36.625Z,99.90
2022-07-31T11:53:06.992Z,99.90
2022-07-31T11:55:56.663Z,99.90
2022-07-31T11:58:41.294Z,99.90
2022-07-31T12:01:13.320Z,99.90
2022-07-31T12:04:09.125Z,99.90
2022-07-31T12:06:39.265Z,99.90
2022-07-31T12:09:07.552Z,99.90
2022-07-31T12:11:55.997Z,99.90
2022-07-31T12:14:32.356Z,99.90
2022-07-31T12:17:00.895Z,99.90
2022-07-31T12:19:38.805Z,99.90
2022-07-31T12:22:17.868Z,99.90
2022-07-31T12:24:46.163Z,99.90
2022-07-31T12:27:16.976Z,99.90
2022-07-31T12:29:46.467Z,99.90
2022-07-31T12:32:25.916Z,99.90
2022-07-31T12:35:03.627Z,99.90
2022-07-31T12:37:32.224Z,99.90
2022-07-31T12:40:01.645Z,99.90
2022-07-31T12:42:35.255Z,99.90
2022-07-31T12:45:19.249Z,99.90
2022-07-31T12:47:51.649Z,99.90
2022-07-31T12:50:21.382Z,99.90
2022-07-31T12:52:49.558Z,99.90
2022-07-31T12:55:17.937Z,99.90
2022-07-31T12:57:51.561Z,99.90
2022-07-31T13:00:23.586Z,99.90
2022-07-31T13:02:51.960Z,99.90
2022-07-31T13:05:20.504Z,99.90
2022-07-31T13:07:49.152Z,99.90
2022-07-31T13:10:21.946Z,99.90
2022-07-31T13:12:53.004Z,99.90
2022-07-31T13:15:29.557Z,99.90
2022-07-31T13:17:58.333Z,99.90
2022-07-31T13:20:26.859Z,99.90
2022-07-31T13:22:55.379Z,99.90
2022-07-31T13:25:23.486Z,99.10
2022-07-31T13:27:51.624Z,98.60
2022-07-31T13:30:22.100Z,99.20
2022-07-31T13:32:58.834Z,99.70
2022-07-31T13:35:30.325Z,99.90
2022-07-31T13:37:58.487Z,99.90
2022-07-31T13:40:51.044Z,99.90
2022-07-31T13:43:22.251Z,99.90
2022-07-31T13:45:51.485Z,99.90
2022-07-31T13:48:26.296Z,99.90
2022-07-31T13:50:54.926Z,99.90
2022-07-31T13:53:35.917Z,99.90
2022-07-31T13:56:13.258Z,99.90
2022-07-31T13:59:04.881Z,99.90
2022-07-31T14:02:13.217Z,99.90
2022-07-31T14:04:24.140Z,99.90
2022-07-31T14:06:55.986Z,99.90
2022-07-31T14:09:26.237Z,99.90
2022-07-31T14:11:54.352Z,99.90
2022-07-31T14:14:24.613Z,99.30
2022-07-31T14:16:52.763Z,98.80
2022-07-31T14:19:22.766Z,98.90
2022-07-31T14:21:57.700Z,99.00
2022-07-31T14:24:36.248Z,98.80
2022-07-31T14:27:08.325Z,98.90
2022-07-31T14:29:45.219Z,99.70
2022-07-31T14:32:49.881Z,98.90
2022-07-31T14:35:24.905Z,99.50
2022-07-31T14:37:54.696Z,98.90
2022-07-31T14:40:23.364Z,98.20
2022-07-31T14:42:51.759Z,98.20
2022-07-31T14:45:20.057Z,98.50
2022-07-31T14:47:50.237Z,98.60
2022-07-31T14:50:19.821Z,99.30
2022-07-31T14:52:48.373Z,99.90
2022-07-31T14:55:19.313Z,99.90
2022-07-31T14:57:48.001Z,99.90
2022-07-31T15:00:16.644Z,99.90
2022-07-31T15:02:45.733Z,99.90
2022-07-31T15:06:40.847Z,99.90
2022-07-31T15:08:23.967Z,99.90
2022-07-31T15:10:52.106Z,99.90
2022-07-31T15:13:20.545Z,99.80
2022-07-31T15:15:49.396Z,99.50
2022-07-31T15:18:17.488Z,99.50
2022-07-31T15:20:45.800Z,99.80
2022-07-31T15:23:13.933Z,99.90
2022-07-31T15:25:48.302Z,98.80
2022-07-31T15:28:41.676Z,98.80
2022-07-31T15:31:10.024Z,99.90
2022-07-31T15:33:39.020Z,99.70
2022-07-31T15:36:13.514Z,99.90
2022-07-31T15:38:43.130Z,99.90
2022-07-31T15:41:13.551Z,99.90
2022-07-31T15:43:47.221Z,99.90
2022-07-31T15:46:15.325Z,99.90
2022-07-31T15:48:43.379Z,99.90
2022-07-31T15:51:11.754Z,99.90
2022-07-31T15:53:39.924Z,99.90
2022-07-31T15:56:08.051Z,99.90
2022-07-31T15:58:37.525Z,99.90
2022-07-31T16:01:05.773Z,99.90
2022-07-31T16:03:43.690Z,99.90
2022-07-31T16:06:19.090Z,99.90
2022-07-31T16:08:56.115Z,99.90
2022-07-31T16:11:24.239Z,99.90
2022-07-31T16:14:13.670Z,99.90
2022-07-31T16:16:45.995Z,99.90
2022-07-31T16:19:15.260Z,99.90
2022-07-31T16:21:43.541Z,99.90
2022-07-31T16:24:13.179Z,99.90
2022-07-31T16:26:41.494Z,99.90
2022-07-31T16:29:17.426Z,99.90
2022-07-31T16:31:47.685Z,99.90
2022-07-31T16:34:15.925Z,99.90
2022-07-31T16:36:44.161Z,99.90
2022-07-31T16:39:21.584Z,99.90
2022-07-31T16:41:54.644Z,99.90
2022-07-31T16:44:30.724Z,99.90
2022-07-31T16:47:11.755Z,99.90
2022-07-31T16:49:41.597Z,99.90
2022-07-31T16:52:09.758Z,99.90
2022-07-31T16:54:38.744Z,99.90
2022-07-31T16:57:07.251Z,99.90
2022-07-31T16:59:56.460Z,99.90
2022-07-31T17:02:25.649Z,99.90
2022-07-31T17:04:54.200Z,99.90
2022-07-31T17:07:25.041Z,99.90
2022-07-31T17:09:53.323Z,99.90
2022-07-31T17:12:21.483Z,99.90
2022-07-31T17:14:49.829Z,99.90
2022-07-31T17:17:27.060Z,99.90
2022-07-31T17:19:59.295Z,99.90
2022-07-31T17:22:29.071Z,99.90
2022-07-31T17:25:02.360Z,99.90
2022-07-31T17:27:30.476Z,99.90
2022-07-31T17:29:58.890Z,99.90
2022-07-31T17:32:27.073Z,1.00
2022-07-31T17:34:55.215Z,25.40
2022-07-31T17:37:24.894Z,42.10
2022-07-31T17:39:55.137Z,48.70
2022-07-31T17:42:26.557Z,47.40
2022-07-31T17:44:56.616Z,45.80
2022-07-31T17:47:25.766Z,42.90
2022-07-31T17:49:54.279Z,30.70
2022-07-31T17:52:23.975Z,27.40
2022-07-31T17:54:52.364Z,23.20
2022-07-31T17:57:20.647Z,30.70
2022-07-31T17:59:51.774Z,32.00
2022-07-31T18:02:19.925Z,35.90
2022-07-31T18:04:48.144Z,29.10
2022-07-31T18:07:18.024Z,37.70
2022-07-31T18:09:47.623Z,40.60
2022-07-31T18:12:16.305Z,35.20
2022-07-31T18:14:46.270Z,37.80
2022-07-31T18:17:14.405Z,37.20
2022-07-31T18:19:42.656Z,76.60
2022-07-31T18:22:10.968Z,99.90
2022-07-31T18:24:43.030Z,99.90
2022-07-31T18:27:12.543Z,99.90
2022-07-31T18:29:55.833Z,99.90
2022-07-31T18:32:24.690Z,99.90
2022-07-31T18:34:52.853Z,99.90
2022-07-31T18:37:20.999Z,99.90
2022-07-31T18:39:49.477Z,99.90
2022-07-31T18:42:19.015Z,99.90
2022-07-31T18:44:47.169Z,99.90
2022-07-31T18:47:15.259Z,99.90
2022-07-31T18:50:59.944Z,99.90
2022-07-31T18:52:31.547Z,99.90
2022-07-31T18:55:00.543Z,99.90
2022-07-31T18:57:30.484Z,99.90
2022-07-31T18:59:58.618Z,99.90
2022-07-31T19:02:28.018Z,99.90
2022-07-31T19:04:56.241Z,99.90
2022-07-31T19:07:25.601Z,99.90
2022-07-31T19:09:53.802Z,99.90
2022-07-31T19:12:21.912Z,99.90
2022-07-31T19:14:52.115Z,99.90
2022-07-31T19:17:21.583Z,99.90
2022-07-31T19:19:55.139Z,99.90
2022-07-31T19:22:29.725Z,99.90
2022-07-31T19:24:57.815Z,99.90
2022-07-31T19:27:48.449Z,99.90
2022-07-31T19:30:15.586Z,99.90
2022-07-31T19:32:43.839Z,99.90
2022-07-31T19:35:12.016Z,99.90
2022-07-31T19:37:40.081Z,99.90
2022-07-31T19:40:09.549Z,99.90
2022-07-31T19:42:37.602Z,99.90
2022-07-31T19:45:06.584Z,99.90
2022-07-31T19:47:36.233Z,99.90
2022-07-31T19:50:04.861Z,99.90
2022-07-31T19:52:33.007Z,99.90
2022-07-31T19:55:01.107Z,99.90
2022-07-31T19:57:29.173Z,99.90
2022-07-31T19:59:57.247Z,99.90
2022-07-31T20:02:26.002Z,99.90
2022-07-31T20:04:56.341Z,99.90
2022-07-31T20:07:25.531Z,99.90
2022-07-31T20:09:55.752Z,99.90
2022-07-31T20:12:23.896Z,99.90
2022-07-31T20:14:52.328Z,99.90
2022-07-31T20:17:20.415Z,99.90
2022-07-31T20:20:15.058Z,99.90
2022-07-31T20:22:37.931Z,99.90
2022-07-31T20:25:19.641Z,99.90
2022-07-31T20:27:49.067Z,99.90
2022-07-31T20:30:21.685Z,99.90
2022-07-31T20:32:49.903Z,99.90
2022-07-31T20:35:45.561Z,99.90
2022-07-31T20:38:11.798Z,99.90
2022-07-31T20:40:52.885Z,99.90
2022-07-31T20:43:23.854Z,99.90
2022-07-31T20:45:52.462Z,99.90
2022-07-31T20:48:21.947Z,99.90
2022-07-31T20:50:50.104Z,99.90
2022-07-31T20:53:20.868Z,99.90
2022-07-31T20:55:50.051Z,99.90
2022-07-31T20:58:18.776Z,99.90
2022-07-31T21:00:47.517Z,99.90
2022-07-31T21:03:16.180Z,99.90
2022-07-31T21:05:44.666Z,99.90
2022-07-31T21:08:13.071Z,99.90
2022-07-31T21:10:42.607Z,99.90
2022-07-31T21:13:11.103Z,99.90
2022-07-31T21:15:41.788Z,99.90
2022-07-31T21:18:12.988Z,99.90
2022-07-31T21:20:50.617Z,99.90
2022-07-31T21:23:22.507Z,99.90
2022-07-31T21:25:52.891Z,99.90
2022-07-31T21:28:21.593Z,99.90
2022-07-31T21:30:50.754Z,99.90
2022-07-31T21:33:19.677Z,99.90
2022-07-31T21:35:48.332Z,99.90
2022-07-31T21:38:17.080Z,99.90
2022-07-31T21:40:47.097Z,99.90
2022-07-31T21:43:22.098Z,99.90
2022-07-31T21:45:57.659Z,99.90
2022-07-31T21:48:31.252Z,99.90
2022-07-31T21:51:00.184Z,99.90
2022-07-31T21:53:28.342Z,99.90
2022-07-31T21:55:58.815Z,99.90
2022-07-31T21:58:29.401Z,99.90
2022-07-31T22:00:58.871Z,99.90
2022-07-31T22:03:27.043Z,99.90
2022-07-31T22:06:12.548Z,99.90
2022-07-31T22:08:40.961Z,99.90
2022-07-31T22:11:09.118Z,99.90
2022-07-31T22:13:38.649Z,99.90
2022-07-31T22:16:07.162Z,99.90
2022-07-31T22:18:37.251Z,99.90
2022-07-31T22:21:08.432Z,99.90
2022-07-31T22:23:36.896Z,99.90
2022-07-31T22:26:05.474Z,99.90
2022-07-31T22:28:33.814Z,99.90
2022-07-31T22:31:03.759Z,99.90
2022-07-31T22:33:32.164Z,99.90
2022-07-31T22:36:03.231Z,99.90
2022-07-31T22:38:32.148Z,99.90
2022-07-31T22:41:00.497Z,99.90
2022-07-31T22:44:10.224Z,99.90
2022-07-31T22:46:18.619Z,99.90
2022-07-31T22:48:47.520Z,99.90
2022-07-31T22:51:15.928Z,99.90
2022-07-31T22:53:48.843Z,99.90
2022-07-31T22:56:17.800Z,99.90
2022-07-31T22:58:45.882Z,99.90
2022-07-31T23:01:14.233Z,99.90
2022-07-31T23:03:43.667Z,99.90
2022-07-31T23:06:31.146Z,99.90
2022-07-31T23:08:59.938Z,99.90
2022-07-31T23:11:28.256Z,99.90
2022-07-31T23:13:56.468Z,99.90
2022-07-31T23:16:24.660Z,99.90
2022-07-31T23:18:54.146Z,99.90
2022-07-31T23:21:22.368Z,99.90
2022-07-31T23:23:50.804Z,99.90
2022-07-31T23:26:19.685Z,99.90
2022-07-31T23:28:48.316Z,99.90
2022-07-31T23:31:16.730Z,99.90
2022-07-31T23:33:45.243Z,99.90
2022-07-31T23:36:15.131Z,99.90
2022-07-31T23:38:44.355Z,99.90
2022-07-31T23:41:13.235Z,99.90
2022-07-31T23:43:41.938Z,99.90
2022-07-31T23:46:26.771Z,99.90
2022-07-31T23:48:55.228Z,99.90
2022-07-31T23:51:25.430Z,99.90
2022-07-31T23:53:53.634Z,99.90
2022-07-31T23:56:21.744Z,99.90
2022-07-31T23:58:50.421Z,99.90
